createdAt,value
2023-04-19T00:00:09.274Z,95596.66
2023-04-19T00:02:40.925Z,95588.44
2023-04-19T00:05:12.025Z,95583.13
2023-04-19T00:07:41.482Z,95589.66
2023-04-19T00:10:10.685Z,95590.38
2023-04-19T00:12:38.513Z,95586.31
2023-04-19T00:15:07.458Z,95578.22
2023-04-19T00:17:35.951Z,95571.84
2023-04-19T00:20:05.959Z,95572.81
2023-04-19T00:22:33.907Z,95577.22
2023-04-19T00:25:03.911Z,95574.19
2023-04-19T00:27:31.891Z,95569.88
2023-04-19T00:30:00.501Z,95574.53
2023-04-19T00:32:28.445Z,95568.03
2023-04-19T00:34:56.328Z,95564.06
2023-04-19T00:37:24.781Z,95570.94
2023-04-19T00:39:52.662Z,95568.47
2023-04-19T00:42:21.953Z,95561.94
2023-04-19T00:44:49.916Z,95567.25
2023-04-19T00:47:18.005Z,95563.16
2023-04-19T00:49:46.997Z,95559.28
2023-04-19T00:52:14.930Z,95557.88
2023-04-19T00:54:44.544Z,95554.25
2023-04-19T00:57:15.246Z,95559.13
2023-04-19T00:59:45.025Z,95557.53
2023-04-19T01:02:12.960Z,95564.41
2023-04-19T01:04:42.089Z,95556.22
2023-04-19T01:07:10.429Z,95550.66
2023-04-19T01:09:42.953Z,95556.00
2023-04-19T01:12:10.874Z,95552.31
2023-04-19T01:14:38.836Z,95545.53
2023-04-19T01:17:08.541Z,95547.31
2023-04-19T01:19:37.291Z,95532.19
2023-04-19T01:22:06.528Z,95539.00
2023-04-19T01:24:35.870Z,95532.81
2023-04-19T01:27:03.734Z,95544.75
2023-04-19T01:29:31.590Z,95527.53
2023-04-19T01:31:59.564Z,95526.38
2023-04-19T01:34:28.315Z,95531.22
2023-04-19T01:36:56.140Z,95526.19
2023-04-19T01:39:24.786Z,95523.72
2023-04-19T01:41:54.104Z,95527.06
2023-04-19T01:44:22.719Z,95520.25
2023-04-19T01:46:50.600Z,95522.03
2023-04-19T01:49:18.550Z,95523.53
2023-04-19T01:51:46.793Z,95521.44
2023-04-19T01:54:14.944Z,95515.88
2023-04-19T01:56:43.080Z,95515.78
2023-04-19T01:59:15.272Z,95520.72
2023-04-19T02:01:43.283Z,95511.63
2023-04-19T02:04:11.362Z,95508.03
2023-04-19T02:06:39.344Z,95511.63
2023-04-19T02:09:08.288Z,95506.44
2023-04-19T02:11:36.198Z,95507.25
2023-04-19T02:14:04.147Z,95504.97
2023-04-19T02:16:35.627Z,95507.25
2023-04-19T02:19:04.057Z,95500.44
2023-04-19T02:21:32.355Z,95502.91
2023-04-19T02:24:00.236Z,95489.19
2023-04-19T02:26:28.190Z,95487.41
2023-04-19T02:28:56.100Z,95480.09
2023-04-19T02:31:24.096Z,95475.16
2023-04-19T02:33:53.497Z,95471.19
2023-04-19T02:36:21.397Z,95468.44
2023-04-19T02:38:49.476Z,95459.81
2023-04-19T02:41:17.455Z,95461.19
2023-04-19T02:43:45.311Z,95461.47
2023-04-19T02:46:17.447Z,95454.03
2023-04-19T02:48:45.448Z,95452.47
2023-04-19T02:51:17.663Z,95458.25
2023-04-19T02:53:45.742Z,95446.28
2023-04-19T02:56:16.435Z,95445.03
2023-04-19T02:58:44.419Z,95444.97
2023-04-19T03:01:13.204Z,95439.69
2023-04-19T03:03:41.300Z,95442.78
2023-04-19T03:06:09.464Z,95432.16
2023-04-19T03:08:38.811Z,95434.31
2023-04-19T03:11:07.683Z,95436.25
2023-04-19T03:13:35.618Z,95429.53
2023-04-19T03:16:04.417Z,95420.19
2023-04-19T03:18:33.235Z,95431.63
2023-04-19T03:21:03.567Z,95427.19
2023-04-19T03:23:40.017Z,95420.81
2023-04-19T03:26:07.992Z,95413.97
2023-04-19T03:28:41.982Z,95418.84
2023-04-19T03:31:24.510Z,95408.09
2023-04-19T03:33:54.336Z,95410.59
2023-04-19T03:36:27.187Z,95407.63
2023-04-19T03:38:56.350Z,95407.88
2023-04-19T03:41:25.996Z,95402.97
2023-04-19T03:44:09.803Z,95402.00
2023-04-19T03:46:38.621Z,95403.78
2023-04-19T03:49:06.688Z,95402.31
2023-04-19T03:51:34.655Z,95400.88
2023-04-19T03:54:03.958Z,95401.38
2023-04-19T03:56:31.814Z,95394.97
2023-04-19T03:58:59.716Z,95400.72
2023-04-19T04:01:29.170Z,95400.66
2023-04-19T04:03:57.928Z,95404.28
2023-04-19T04:06:26.772Z,95402.41
2023-04-19T04:08:54.767Z,95401.44
2023-04-19T04:11:24.077Z,95404.84
2023-04-19T04:13:51.897Z,95402.72
2023-04-19T04:16:24.281Z,95408.63
2023-04-19T04:18:54.977Z,95403.44
2023-04-19T04:21:27.114Z,95403.09
2023-04-19T04:23:56.839Z,95408.72
2023-04-19T04:26:35.308Z,95399.09
2023-04-19T04:29:24.843Z,95401.47
2023-04-19T04:31:56.900Z,95406.75
2023-04-19T04:34:29.160Z,95406.13
2023-04-19T04:37:05.822Z,95407.25
2023-04-19T04:39:39.018Z,95406.00
2023-04-19T04:42:10.136Z,95402.66
2023-04-19T04:44:38.877Z,95402.16
2023-04-19T04:47:08.273Z,95406.06
2023-04-19T04:49:42.536Z,95401.81
2023-04-19T04:52:10.471Z,95405.00
2023-04-19T04:54:48.180Z,95398.25
2023-04-19T04:57:25.527Z,95403.59
2023-04-19T04:59:53.415Z,95402.78
2023-04-19T05:02:22.594Z,95407.25
2023-04-19T05:04:52.289Z,95403.16
2023-04-19T05:07:20.201Z,95404.09
2023-04-19T05:09:48.101Z,95396.44
2023-04-19T05:12:20.640Z,95394.16
2023-04-19T05:14:50.038Z,95396.31
2023-04-19T05:17:18.156Z,95384.63
2023-04-19T05:19:47.125Z,95383.66
2023-04-19T05:22:15.866Z,95393.47
2023-04-19T05:24:43.984Z,95398.75
2023-04-19T05:27:12.292Z,95399.25
2023-04-19T05:29:40.344Z,95394.00
2023-04-19T05:32:09.805Z,95395.28
2023-04-19T05:34:45.020Z,95388.31
2023-04-19T05:37:15.856Z,95385.41
2023-04-19T05:39:44.560Z,95388.38
2023-04-19T05:42:12.834Z,95386.28
2023-04-19T05:44:40.690Z,95391.44
2023-04-19T05:47:09.961Z,95391.59
2023-04-19T05:50:04.208Z,95393.19
2023-04-19T05:52:35.928Z,95392.97
2023-04-19T05:55:05.874Z,95386.03
2023-04-19T05:57:35.435Z,95387.34
2023-04-19T06:00:08.937Z,95390.19
2023-04-19T06:02:50.190Z,95384.28
2023-04-19T06:05:18.436Z,95393.19
2023-04-19T06:07:54.683Z,95391.09
2023-04-19T06:10:33.746Z,95389.38
2023-04-19T06:13:08.949Z,95394.44
2023-04-19T06:15:36.874Z,95392.50
2023-04-19T06:18:10.121Z,95389.63
2023-04-19T06:20:38.590Z,95378.41
2023-04-19T06:23:07.238Z,95394.72
2023-04-19T06:25:35.240Z,95394.44
2023-04-19T06:28:03.076Z,95398.25
2023-04-19T06:30:30.914Z,95386.53
2023-04-19T06:32:58.697Z,95395.09
2023-04-19T06:35:27.950Z,95389.06
2023-04-19T06:37:56.042Z,95398.16
2023-04-19T06:40:24.098Z,95390.66
2023-04-19T06:42:52.202Z,95397.03
2023-04-19T06:45:20.222Z,95395.09
2023-04-19T06:47:48.351Z,95394.63
2023-04-19T06:50:16.822Z,95398.09
2023-04-19T06:52:46.003Z,95387.09
2023-04-19T06:55:13.757Z,95397.31
2023-04-19T06:57:42.538Z,95393.09
2023-04-19T07:00:12.137Z,95388.66
2023-04-19T07:02:40.127Z,95399.78
2023-04-19T07:05:09.292Z,95396.69
2023-04-19T07:07:38.238Z,95396.06
2023-04-19T07:10:09.147Z,95389.19
2023-04-19T07:12:36.928Z,95399.34
2023-04-19T07:15:05.533Z,95394.06
2023-04-19T07:17:35.681Z,95380.31
2023-04-19T07:20:03.839Z,95435.28
2023-04-19T07:22:31.684Z,95428.78
2023-04-19T07:24:59.663Z,95428.78
2023-04-19T07:27:28.850Z,95419.50
2023-04-19T07:29:56.748Z,95426.81
2023-04-19T07:32:24.795Z,95424.63
2023-04-19T07:34:52.989Z,95418.97
2023-04-19T07:37:20.999Z,95424.75
2023-04-19T07:39:48.812Z,95421.41
2023-04-19T07:42:16.719Z,95416.75
2023-04-19T07:44:45.870Z,95414.25
2023-04-19T07:47:13.685Z,95414.19
2023-04-19T07:49:41.522Z,95407.63
2023-04-19T07:52:10.428Z,95407.28
2023-04-19T07:54:39.308Z,95404.81
2023-04-19T07:57:09.400Z,95410.25
2023-04-19T07:59:37.316Z,95410.28
2023-04-19T08:02:07.665Z,95400.09
2023-04-19T08:04:35.725Z,95402.34
2023-04-19T08:07:04.825Z,95404.91
2023-04-19T08:09:34.876Z,95400.06
2023-04-19T08:12:02.662Z,95408.53
2023-04-19T08:14:40.650Z,95404.75
2023-04-19T08:17:26.797Z,95407.91
2023-04-19T08:19:57.148Z,95403.97
2023-04-19T08:22:25.083Z,95406.69
2023-04-19T08:24:53.043Z,95405.09
2023-04-19T08:27:21.446Z,95402.06
2023-04-19T08:29:49.335Z,95408.56
2023-04-19T08:32:18.574Z,95396.84
2023-04-19T08:34:46.404Z,95398.63
2023-04-19T08:37:14.189Z,95396.50
2023-04-19T08:39:41.964Z,95393.59
2023-04-19T08:42:18.302Z,95391.44
2023-04-19T08:45:23.541Z,95378.56
2023-04-19T08:47:59.888Z,95383.84
2023-04-19T08:53:12.283Z,95385.78
2023-04-19T08:58:30.602Z,95375.34
2023-04-19T09:01:06.394Z,95385.44
2023-04-19T09:03:47.275Z,95380.63
2023-04-19T09:06:24.255Z,95378.06
2023-04-19T09:08:57.842Z,95365.22
2023-04-19T09:11:38.083Z,95367.41
2023-04-19T09:14:10.043Z,95371.63
2023-04-19T09:16:39.319Z,95370.56
2023-04-19T09:19:22.281Z,95368.97
2023-04-19T09:21:54.414Z,95364.09
2023-04-19T09:27:11.942Z,95356.06
2023-04-19T09:29:40.008Z,95358.69
2023-04-19T09:32:08.008Z,95350.81
2023-04-19T09:34:37.173Z,95362.81
2023-04-19T09:37:21.543Z,95356.66
2023-04-19T09:40:04.128Z,95353.44
2023-04-19T09:45:29.226Z,95354.22
2023-04-19T09:48:07.445Z,95342.09
2023-04-19T09:50:46.241Z,95338.38
2023-04-19T09:53:22.954Z,95331.41
2023-04-19T09:56:00.392Z,95323.97
2023-04-19T10:01:13.399Z,95324.47
2023-04-19T10:03:45.672Z,95320.63
2023-04-19T10:06:40.174Z,95328.84
2023-04-19T10:09:05.803Z,95316.81
2023-04-19T10:11:38.858Z,95320.91
2023-04-19T10:14:09.073Z,95317.78
2023-04-19T10:16:38.301Z,95316.00
2023-04-19T10:19:11.436Z,95322.31
2023-04-19T10:21:42.475Z,95318.78
2023-04-19T10:24:11.107Z,95307.06
2023-04-19T10:27:08.546Z,95307.69
2023-04-19T10:30:01.910Z,95303.53
2023-04-19T10:32:30.821Z,95302.97
2023-04-19T10:35:04.651Z,95297.91
2023-04-19T10:37:33.886Z,95288.38
2023-04-19T10:40:01.800Z,95294.03
2023-04-19T10:43:03.155Z,95287.28
2023-04-19T10:45:33.827Z,95281.34
2023-04-19T10:48:04.614Z,95280.19
2023-04-19T10:50:58.695Z,95283.75
2023-04-19T10:53:47.600Z,95268.72
2023-04-19T10:56:16.585Z,95272.94
2023-04-19T10:59:21.921Z,95265.28
2023-04-19T11:01:53.280Z,95265.13
2023-04-19T11:04:24.010Z,95273.69
2023-04-19T11:07:03.473Z,95263.06
2023-04-19T11:09:35.446Z,95256.91
2023-04-19T11:12:08.325Z,95267.91
2023-04-19T11:14:38.131Z,95262.13
2023-04-19T11:17:16.595Z,95255.63
2023-04-19T11:19:45.892Z,95246.97
2023-04-19T11:22:13.689Z,95248.78
2023-04-19T11:24:48.157Z,95255.66
2023-04-19T11:27:16.401Z,95234.94
2023-04-19T11:29:44.333Z,95245.06
2023-04-19T11:32:12.282Z,95234.03
2023-04-19T11:34:40.592Z,95226.38
2023-04-19T11:37:08.400Z,95236.81
2023-04-19T11:39:48.377Z,95233.41
2023-04-19T11:42:20.531Z,95226.72
2023-04-19T11:44:52.769Z,95216.28
2023-04-19T11:47:21.052Z,95215.53
2023-04-19T11:49:48.953Z,95206.09
2023-04-19T11:52:25.272Z,95217.34
2023-04-19T11:54:55.282Z,95209.88
2023-04-19T11:57:30.115Z,95219.91
2023-04-19T12:00:10.206Z,95203.94
2023-04-19T12:02:43.916Z,95204.34
2023-04-19T12:05:13.111Z,95200.38
2023-04-19T12:07:59.934Z,95207.53
2023-04-19T12:10:29.152Z,95205.13
2023-04-19T12:12:56.962Z,95204.41
2023-04-19T12:15:26.450Z,95199.53
2023-04-19T12:18:00.103Z,95180.78
2023-04-19T12:20:35.384Z,95168.97
2023-04-19T12:23:03.670Z,95165.28
2023-04-19T12:25:34.172Z,95165.53
2023-04-19T12:28:03.984Z,95164.25
2023-04-19T12:30:31.878Z,95163.66
2023-04-19T12:33:00.588Z,95166.34
2023-04-19T12:35:29.188Z,95162.72
2023-04-19T12:37:59.235Z,95168.00
2023-04-19T12:40:28.708Z,95176.94
2023-04-19T12:42:58.058Z,95173.88
2023-04-19T12:45:26.821Z,95155.19
2023-04-19T12:47:54.738Z,95160.00
2023-04-19T12:50:22.631Z,95161.59
2023-04-19T12:52:51.845Z,95156.78
2023-04-19T12:55:19.934Z,95149.03
2023-04-19T12:57:48.064Z,95146.72
2023-04-19T13:00:18.177Z,95150.78
2023-04-19T13:02:48.115Z,95157.09
2023-04-19T13:05:16.237Z,95155.59
2023-04-19T13:07:44.025Z,95157.06
2023-04-19T13:10:12.451Z,95149.56
2023-04-19T13:12:40.677Z,95150.47
2023-04-19T13:15:10.082Z,95138.81
2023-04-19T13:17:39.420Z,95135.06
2023-04-19T13:20:09.517Z,95144.41
2023-04-19T13:22:37.418Z,95132.25
2023-04-19T13:25:06.179Z,95134.16
2023-04-19T13:27:33.955Z,95139.31
2023-04-19T13:30:02.014Z,95132.06
2023-04-19T13:32:30.306Z,95138.41
2023-04-19T13:35:01.138Z,95130.59
2023-04-19T13:37:29.298Z,95123.91
2023-04-19T13:40:14.968Z,95126.22
2023-04-19T13:42:45.676Z,95115.47
2023-04-19T13:45:13.932Z,95113.28
2023-04-19T13:47:41.832Z,95110.38
2023-04-19T13:50:12.830Z,95120.66
2023-04-19T13:52:44.747Z,95113.66
2023-04-19T13:55:12.614Z,95105.41
2023-04-19T13:57:40.413Z,95102.38
2023-04-19T14:00:09.544Z,95107.66
2023-04-19T14:02:37.592Z,95106.06
2023-04-19T14:05:06.558Z,95103.88
2023-04-19T14:07:35.866Z,95100.88
2023-04-19T14:10:03.880Z,95103.09
2023-04-19T14:12:31.852Z,95101.94
2023-04-19T14:15:00.100Z,95090.50
2023-04-19T14:17:28.132Z,95096.03
2023-04-19T14:19:56.858Z,95096.47
2023-04-19T14:22:25.482Z,95102.44
2023-04-19T14:24:54.636Z,95110.31
2023-04-19T14:27:22.446Z,95110.22
2023-04-19T14:29:50.397Z,95119.50
2023-04-19T14:32:26.132Z,95110.78
2023-04-19T14:34:54.989Z,95114.13
2023-04-19T14:37:23.963Z,95113.69
2023-04-19T14:39:52.090Z,95107.44
2023-04-19T14:42:22.875Z,95110.09
2023-04-19T14:44:52.531Z,95112.53
2023-04-19T14:47:21.201Z,95115.97
2023-04-19T14:49:49.153Z,95109.47
2023-04-19T14:52:17.321Z,95118.34
2023-04-19T14:54:45.227Z,95123.00
2023-04-19T14:57:15.286Z,95124.41
2023-04-19T14:59:44.454Z,95123.97
2023-04-19T15:02:13.872Z,95135.84
2023-04-19T15:04:42.397Z,95136.03
2023-04-19T15:07:10.637Z,95145.41
2023-04-19T15:09:39.269Z,95141.78
2023-04-19T15:12:09.471Z,95139.63
2023-04-19T15:14:37.529Z,95149.13
2023-04-19T15:17:07.031Z,95153.81
2023-04-19T15:19:34.903Z,95158.69
2023-04-19T15:22:03.970Z,95166.03
2023-04-19T15:24:31.862Z,95169.00
2023-04-19T15:27:00.006Z,95175.72
2023-04-19T15:29:27.876Z,95167.94
2023-04-19T15:31:55.813Z,95170.03
2023-04-19T15:34:25.441Z,95176.31
2023-04-19T15:36:53.337Z,95176.47
2023-04-19T15:39:21.218Z,95184.97
2023-04-19T15:41:50.081Z,95185.81
2023-04-19T15:44:17.860Z,95186.00
2023-04-19T15:46:45.737Z,95180.44
2023-04-19T15:49:13.647Z,95176.28
2023-04-19T15:51:42.908Z,95179.00
2023-04-19T15:54:11.742Z,95181.38
2023-04-19T15:56:39.485Z,95180.25
2023-04-19T15:59:10.182Z,95188.09
2023-04-19T16:01:38.231Z,95185.69
2023-04-19T16:04:06.507Z,95175.84
2023-04-19T16:06:34.506Z,95184.41
2023-04-19T16:09:03.757Z,95179.78
2023-04-19T16:11:31.571Z,95175.09
2023-04-19T16:13:59.372Z,95192.28
2023-04-19T16:16:30.828Z,95191.81
2023-04-19T16:18:58.712Z,95185.44
2023-04-19T16:21:28.691Z,95194.44
2023-04-19T16:23:56.630Z,95201.25
2023-04-19T16:26:25.736Z,95180.78
2023-04-19T16:28:53.623Z,95200.94
2023-04-19T16:31:21.487Z,95200.00
2023-04-19T16:33:49.298Z,95205.25
2023-04-19T16:36:17.167Z,95199.06
2023-04-19T16:38:44.953Z,95212.25
2023-04-19T16:41:12.825Z,95213.09
2023-04-19T16:43:42.102Z,95205.78
2023-04-19T16:46:10.860Z,95210.50
2023-04-19T16:48:38.745Z,95231.06
2023-04-19T16:51:06.797Z,95225.53
2023-04-19T16:53:34.618Z,95227.88
2023-04-19T16:56:03.569Z,95235.69
2023-04-19T16:58:31.706Z,95228.53
2023-04-19T17:01:02.155Z,95222.34
2023-04-19T17:03:30.587Z,95219.34
2023-04-19T17:05:58.573Z,95226.16
2023-04-19T17:08:26.666Z,95229.97
2023-04-19T17:10:54.515Z,95225.38
2023-04-19T17:13:22.413Z,95221.88
2023-04-19T17:15:50.415Z,95229.94
2023-04-19T17:18:19.714Z,95216.16
2023-04-19T17:20:47.479Z,95212.66
2023-04-19T17:23:16.623Z,95204.38
2023-04-19T17:25:44.417Z,95205.03
2023-04-19T17:28:12.401Z,95199.31
2023-04-19T17:30:40.212Z,95195.34
2023-04-19T17:33:08.115Z,95193.94
2023-04-19T17:35:37.471Z,95194.56
2023-04-19T17:38:05.372Z,95196.16
2023-04-19T17:40:33.220Z,95204.72
2023-04-19T17:43:01.090Z,95186.47
2023-04-19T17:45:28.982Z,95191.69
2023-04-19T17:47:57.040Z,95178.66
2023-04-19T17:50:26.400Z,95185.97
2023-04-19T17:52:56.037Z,95183.75
2023-04-19T17:55:25.421Z,95185.50
2023-04-19T17:57:53.278Z,95173.44
2023-04-19T18:00:21.682Z,95179.63
2023-04-19T18:02:50.429Z,95182.81
2023-04-19T18:05:18.487Z,95177.56
2023-04-19T18:07:47.754Z,95169.94
2023-04-19T18:10:16.974Z,95178.19
2023-04-19T18:12:44.866Z,95173.59
2023-04-19T18:15:13.147Z,95171.38
2023-04-19T18:17:41.137Z,95177.75
2023-04-19T18:20:11.280Z,95183.13
2023-04-19T18:22:41.665Z,95179.31
2023-04-19T18:25:10.845Z,95174.38
2023-04-19T18:27:40.322Z,95182.31
2023-04-19T18:30:09.212Z,95183.44
2023-04-19T18:32:37.582Z,95184.88
2023-04-19T18:35:08.795Z,95185.03
2023-04-19T18:37:36.853Z,95177.75
2023-04-19T18:40:07.025Z,95194.22
2023-04-19T18:42:35.003Z,95202.34
2023-04-19T18:45:05.047Z,95207.44
2023-04-19T18:47:32.908Z,95207.28
2023-04-19T18:50:05.620Z,95209.66
2023-04-19T18:52:35.287Z,95216.31
2023-04-19T18:55:03.656Z,95221.06
2023-04-19T18:57:34.640Z,95222.19
2023-04-19T19:00:07.043Z,95227.09
2023-04-19T19:02:36.986Z,95233.63
2023-04-19T19:05:07.464Z,95233.31
2023-04-19T19:07:37.524Z,95235.03
2023-04-19T19:10:18.469Z,95239.66
2023-04-19T19:12:48.949Z,95227.75
2023-04-19T19:15:18.966Z,95229.16
2023-04-19T19:17:49.741Z,95229.97
2023-04-19T19:20:19.393Z,95233.81
2023-04-19T19:22:47.285Z,95235.38
2023-04-19T19:25:15.138Z,95231.41
2023-04-19T19:27:58.251Z,95230.44
2023-04-19T19:30:33.951Z,95228.22
2023-04-19T19:33:04.575Z,95232.34
2023-04-19T19:35:32.616Z,95236.97
2023-04-19T19:38:00.469Z,95237.91
2023-04-19T19:40:31.018Z,95230.13
2023-04-19T19:43:00.260Z,95233.94
2023-04-19T19:45:29.043Z,95224.72
2023-04-19T19:47:59.846Z,95226.31
2023-04-19T19:53:00.612Z,95233.47
2023-04-19T19:55:28.931Z,95237.59
2023-04-19T20:02:59.626Z,95217.25
2023-04-19T20:05:28.129Z,95211.72
2023-04-19T20:08:07.798Z,95213.44
2023-04-19T20:10:36.499Z,95209.03
2023-04-19T20:13:06.259Z,95216.78
2023-04-19T20:15:34.686Z,95213.63
2023-04-19T20:18:04.284Z,95213.94
2023-04-19T20:20:34.298Z,95225.84
2023-04-19T20:23:02.071Z,95214.53
2023-04-19T20:25:31.164Z,95208.66
2023-04-19T20:27:59.428Z,95206.94
2023-04-19T20:30:27.426Z,95211.19
2023-04-19T20:32:55.294Z,95217.06
2023-04-19T20:35:24.578Z,95205.34
2023-04-19T20:37:52.574Z,95203.09
2023-04-19T20:40:20.382Z,95204.69
2023-04-19T20:42:48.465Z,95198.66
2023-04-19T20:45:16.277Z,95201.53
2023-04-19T20:47:44.185Z,95194.53
2023-04-19T20:50:12.265Z,95201.03
2023-04-19T20:52:41.721Z,95196.63
2023-04-19T20:55:10.400Z,95204.88
2023-04-19T20:57:38.225Z,95207.41
2023-04-19T21:00:08.576Z,95208.81
2023-04-19T21:02:36.712Z,95198.94
2023-04-19T21:05:04.915Z,95177.34
2023-04-19T21:07:33.580Z,95189.59
2023-04-19T21:10:02.902Z,95188.94
2023-04-19T21:12:30.681Z,95175.13
2023-04-19T21:14:58.482Z,95168.13
2023-04-19T21:17:27.669Z,95168.44
2023-04-19T21:19:55.471Z,95171.94
2023-04-19T21:22:23.317Z,95156.09
2023-04-19T21:24:51.308Z,95150.06
2023-04-19T21:27:20.641Z,95153.09
2023-04-19T21:29:48.460Z,95152.47
2023-04-19T21:32:16.281Z,95157.06
2023-04-19T21:34:45.039Z,95162.91
2023-04-19T21:37:12.801Z,95166.09
2023-04-19T21:39:40.643Z,95164.50
2023-04-19T21:42:08.400Z,95163.53
2023-04-19T21:44:37.765Z,95160.06
2023-04-19T21:47:05.720Z,95158.00
2023-04-19T21:49:33.533Z,95149.78
2023-04-19T21:52:01.392Z,95148.50
2023-04-19T21:54:33.812Z,95152.47
2023-04-19T21:57:03.146Z,95149.94
2023-04-19T21:59:31.483Z,95151.66
2023-04-19T22:02:01.154Z,95145.78
2023-04-19T22:04:30.893Z,95149.13
2023-04-19T22:07:02.039Z,95134.69
2023-04-19T22:09:30.663Z,95120.38
2023-04-19T22:11:58.523Z,95135.28
2023-04-19T22:14:26.379Z,95165.00
2023-04-19T22:16:54.924Z,95154.81
2023-04-19T22:19:24.842Z,95144.91
2023-04-19T22:21:53.455Z,95134.66
2023-04-19T22:24:22.225Z,95133.09
2023-04-19T22:26:51.106Z,95133.09
2023-04-19T22:29:19.341Z,95133.09
2023-04-19T22:31:47.365Z,95117.06
2023-04-19T22:34:15.218Z,95118.81
2023-04-19T22:36:44.460Z,95118.19
2023-04-19T22:39:12.412Z,95117.41
2023-04-19T22:41:40.299Z,95117.69
2023-04-19T22:44:08.184Z,95116.59
2023-04-19T22:46:37.213Z,95125.66
2023-04-19T22:49:05.074Z,95125.00
2023-04-19T22:51:34.082Z,95129.78
2023-04-19T22:54:03.423Z,95136.75
2023-04-19T22:56:32.522Z,95137.38
2023-04-19T22:59:00.547Z,95119.47
2023-04-19T23:01:28.400Z,95116.13
2023-04-19T23:03:56.231Z,95115.31
2023-04-19T23:06:24.559Z,95103.88
2023-04-19T23:08:52.795Z,95096.75
2023-04-19T23:11:24.801Z,95100.25
2023-04-19T23:13:54.310Z,95083.41
2023-04-19T23:16:24.688Z,95076.59
2023-04-19T23:18:52.876Z,95074.34
2023-04-19T23:21:20.755Z,95080.22
2023-04-19T23:23:48.492Z,95074.97
2023-04-19T23:26:16.273Z,95068.75
2023-04-19T23:28:45.436Z,95063.88
2023-04-19T23:31:13.414Z,95064.03
2023-04-19T23:33:41.286Z,95069.44
2023-04-19T23:36:09.623Z,95064.50
2023-04-19T23:38:37.461Z,95060.06
2023-04-19T23:41:05.536Z,95055.00
2023-04-19T23:43:33.329Z,95046.56
2023-04-19T23:46:02.518Z,95039.28
2023-04-19T23:48:30.362Z,95043.56
2023-04-19T23:50:58.144Z,95041.50
2023-04-19T23:53:26.113Z,95039.44
2023-04-19T23:55:53.965Z,95036.25
2023-04-19T23:58:21.836Z,95039.22
